Time;durP1;ratioP1;P1;durP2;ratioP2;P2;SDS_P1;SDS_P2;PMS_P1;PMS_P2;Temp;Humidity;BMP_temperature;BMP_pressure;BME280_temperature;BME280_humidity;BME280_pressure;Samples;Min_cycle;Max_cycle;Signal;HPM_P1;HPM_P2
2020/12/09 00:01:55;;;;;;;0.45;0.43;;;2.10;99.90;;;;;;5112880;28;20144;-67
2020/12/09 00:04:22;;;;;;;0.35;0.35;;;2.00;99.90;;;;;;5112902;28;20163;-67
2020/12/09 00:06:49;;;;;;;0.20;0.20;;;1.90;99.90;;;;;;5111331;28;20197;-67
2020/12/09 00:09:19;;;;;;;0.32;0.32;;;1.90;99.90;;;;;;5111454;28;20167;-68
2020/12/09 00:11:46;;;;;;;0.50;0.50;;;1.90;99.90;;;;;;5112627;28;20266;-68
2020/12/09 00:14:12;;;;;;;0.52;0.52;;;1.80;99.90;;;;;;5109503;28;20258;-68
2020/12/09 00:16:39;;;;;;;0.17;0.17;;;1.80;99.90;;;;;;5097240;28;20542;-68
2020/12/09 00:19:05;;;;;;;0.35;0.35;;;1.80;99.90;;;;;;5110791;28;20186;-67
2020/12/09 00:21:33;;;;;;;0.30;0.30;;;1.70;99.90;;;;;;5099239;28;20195;-68
2020/12/09 00:23:59;;;;;;;0.95;0.95;;;1.70;99.90;;;;;;5090448;28;20198;-68
2020/12/09 00:26:26;;;;;;;0.65;0.65;;;1.80;99.90;;;;;;5092156;28;20176;-67
2020/12/09 00:28:54;;;;;;;0.40;0.40;;;1.80;99.90;;;;;;5091988;28;20160;-67
2020/12/09 00:31:24;;;;;;;1.10;1.10;;;1.90;99.90;;;;;;5091976;28;20660;-67
2020/12/09 00:33:50;;;;;;;0.20;0.20;;;1.80;99.90;;;;;;5091969;28;20577;-69
2020/12/09 00:36:18;;;;;;;0.10;0.10;;;1.80;99.90;;;;;;5092001;28;20166;-69
2020/12/09 00:38:46;;;;;;;0.10;0.10;;;1.80;99.90;;;;;;5091563;28;20160;-69
2020/12/09 00:41:20;;;;;;;0.10;0.10;;;1.90;99.90;;;;;;5110799;28;20226;-68
2020/12/09 00:43:47;;;;;;;1.58;1.00;;;1.90;99.90;;;;;;5112162;28;20161;-69
2020/12/09 00:46:24;;;;;;;0.35;0.35;;;2.00;99.90;;;;;;5112092;28;20187;-69
2020/12/09 00:48:51;;;;;;;0.10;0.10;;;2.00;99.90;;;;;;5112162;28;20162;-68
2020/12/09 00:51:22;;;;;;;0.10;0.10;;;2.00;99.90;;;;;;5111914;28;20229;-69
2020/12/09 00:53:48;;;;;;;0.73;0.73;;;2.10;99.90;;;;;;5111884;28;20229;-68
2020/12/09 00:56:15;;;;;;;0.65;0.65;;;2.00;99.90;;;;;;5111911;28;20151;-68
2020/12/09 00:58:41;;;;;;;0.15;0.15;;;2.00;99.90;;;;;;5110581;28;20539;-68
2020/12/09 01:01:10;;;;;;;0.50;0.50;;;2.00;99.90;;;;;;5111769;28;20198;-69
2020/12/09 01:03:37;;;;;;;0.20;0.20;;;2.00;99.90;;;;;;5111806;28;20158;-68
2020/12/09 01:06:07;;;;;;;0.90;0.90;;;2.00;99.90;;;;;;5111631;28;20187;-69
2020/12/09 01:08:35;;;;;;;1.73;1.63;;;2.00;99.90;;;;;;5111811;28;20159;-68
2020/12/09 01:11:02;;;;;;;0.10;0.10;;;2.00;99.90;;;;;;5110216;28;20198;-68
2020/12/09 01:13:28;;;;;;;0.25;0.25;;;2.10;99.90;;;;;;5111534;28;20612;-68
2020/12/09 01:15:54;;;;;;;0.10;0.10;;;2.20;99.90;;;;;;5105960;28;20190;-69
2020/12/09 01:18:20;;;;;;;0.17;0.17;;;2.20;99.90;;;;;;5109067;28;20183;-68
2020/12/09 01:20:46;;;;;;;0.20;0.20;;;2.20;99.90;;;;;;5109571;28;20702;-68
2020/12/09 01:23:14;;;;;;;0.20;0.20;;;2.20;99.90;;;;;;5109956;28;20159;-69
2020/12/09 01:25:43;;;;;;;0.30;0.30;;;2.20;99.90;;;;;;5110815;28;20191;-69
2020/12/09 01:28:09;;;;;;;0.20;0.20;;;2.30;99.90;;;;;;5111181;28;20155;-69
2020/12/09 01:30:35;;;;;;;0.30;0.30;;;2.30;99.90;;;;;;5111272;28;20191;-69
2020/12/09 01:33:01;;;;;;;0.55;0.55;;;2.30;99.90;;;;;;5109860;28;20175;-68
2020/12/09 01:35:27;;;;;;;0.38;0.38;;;2.30;99.90;;;;;;5111026;28;20183;-69
2020/12/09 01:37:54;;;;;;;0.65;0.65;;;2.30;99.90;;;;;;5111190;28;20159;-68
2020/12/09 01:40:20;;;;;;;0.32;0.32;;;2.30;99.90;;;;;;5108734;28;20257;-68
2020/12/09 01:42:49;;;;;;;0.35;0.35;;;2.30;99.90;;;;;;5111077;28;20223;-68
2020/12/09 01:45:16;;;;;;;0.75;0.75;;;2.40;99.90;;;;;;5110770;28;20199;-68
2020/12/09 01:47:44;;;;;;;1.10;1.00;;;2.60;99.90;;;;;;5110745;28;20213;-68
2020/12/09 01:50:12;;;;;;;0.10;0.10;;;2.50;99.90;;;;;;5110862;28;20213;-68
2020/12/09 01:52:38;;;;;;;0.93;0.93;;;2.50;99.90;;;;;;5110907;28;20187;-68
2020/12/09 01:55:04;;;;;;;0.45;0.45;;;2.50;99.90;;;;;;5110848;28;20159;-68
2020/12/09 01:57:30;;;;;;;0.60;0.60;;;2.50;99.90;;;;;;5103963;28;20232;-68
2020/12/09 01:59:56;;;;;;;0.38;0.38;;;2.50;99.90;;;;;;5109169;28;20266;-69
2020/12/09 02:02:22;;;;;;;1.35;1.27;;;2.50;99.90;;;;;;5110576;28;20156;-68
2020/12/09 02:04:48;;;;;;;0.25;0.25;;;2.60;99.90;;;;;;5110612;28;20160;-69
2020/12/09 02:07:14;;;;;;;0.10;0.10;;;2.50;99.90;;;;;;5109161;28;20216;-68
2020/12/09 02:09:40;;;;;;;0.15;0.15;;;2.50;99.90;;;;;;5110597;28;20152;-69
2020/12/09 02:12:06;;;;;;;0.20;0.20;;;2.60;99.90;;;;;;5105168;28;20167;-68
2020/12/09 02:14:32;;;;;;;0.30;0.30;;;2.60;99.90;;;;;;5105535;28;20179;-68
2020/12/09 02:16:59;;;;;;;0.20;0.20;;;2.60;99.90;;;;;;5110426;28;20167;-69
2020/12/09 02:19:26;;;;;;;0.20;0.20;;;2.70;99.90;;;;;;5108870;28;20182;-68
2020/12/09 02:21:53;;;;;;;1.55;1.45;;;2.80;99.90;;;;;;5110261;28;20163;-67
2020/12/09 02:24:19;;;;;;;0.63;0.63;;;2.80;99.90;;;;;;5110302;28;20591;-69
2020/12/09 02:26:47;;;;;;;0.28;0.28;;;2.90;99.90;;;;;;5110090;28;20187;-69
2020/12/09 02:29:13;;;;;;;0.17;0.17;;;2.90;99.90;;;;;;5110107;28;20640;-69
2020/12/09 02:31:39;;;;;;;0.65;0.65;;;2.90;99.90;;;;;;5110259;28;20195;-69
2020/12/09 02:34:06;;;;;;;0.10;0.10;;;2.80;99.90;;;;;;5108729;28;20174;-69
2020/12/09 02:36:33;;;;;;;0.20;0.20;;;2.90;99.90;;;;;;5110005;28;20522;-69
2020/12/09 02:38:59;;;;;;;0.20;0.20;;;2.90;99.90;;;;;;5109964;28;20159;-69
2020/12/09 02:41:25;;;;;;;0.43;0.43;;;3.00;99.90;;;;;;5109633;28;20230;-70
2020/12/09 02:43:51;;;;;;;0.10;0.10;;;2.90;99.90;;;;;;5110022;28;20216;-68
2020/12/09 02:46:17;;;;;;;0.10;0.10;;;2.90;99.90;;;;;;5109785;28;20255;-69
2020/12/09 02:48:43;;;;;;;0.40;0.40;;;2.80;99.90;;;;;;5109852;28;20162;-69
2020/12/09 02:51:09;;;;;;;0.10;0.10;;;2.80;99.90;;;;;;5108873;28;20246;-69
2020/12/09 02:53:35;;;;;;;0.40;0.40;;;2.80;99.90;;;;;;5109876;28;20160;-69
2020/12/09 02:56:01;;;;;;;0.10;0.10;;;3.00;99.90;;;;;;5109676;28;20647;-69
2020/12/09 02:58:28;;;;;;;0.10;0.10;;;3.00;99.90;;;;;;5109636;28;20164;-68
2020/12/09 03:00:56;;;;;;;0.10;0.10;;;3.00;99.90;;;;;;5109693;28;20258;-68
2020/12/09 03:03:22;;;;;;;0.30;0.30;;;2.80;99.90;;;;;;5109535;28;20263;-68
2020/12/09 03:05:49;;;;;;;0.70;0.70;;;2.80;99.90;;;;;;5108248;28;20225;-68
2020/12/09 03:08:15;;;;;;;0.47;0.47;;;2.80;99.90;;;;;;5109557;28;20211;-68
2020/12/09 03:10:41;;;;;;;0.65;0.65;;;2.90;99.90;;;;;;5108241;28;20244;-68
2020/12/09 03:13:07;;;;;;;0.20;0.20;;;2.90;99.90;;;;;;5109527;28;20214;-69
2020/12/09 03:15:33;;;;;;;1.35;0.40;;;2.90;99.90;;;;;;5109626;28;20163;-69
2020/12/09 03:17:59;;;;;;;0.30;0.30;;;2.80;99.90;;;;;;5109470;28;20164;-69
2020/12/09 03:20:25;;;;;;;0.75;0.75;;;2.90;99.90;;;;;;5108083;28;20195;-68
2020/12/09 03:22:51;;;;;;;0.20;0.20;;;3.00;99.90;;;;;;5109528;28;20166;-68
2020/12/09 03:25:17;;;;;;;0.68;0.68;;;2.90;99.90;;;;;;5109287;28;20290;-69
2020/12/09 03:27:43;;;;;;;0.38;0.38;;;3.00;99.90;;;;;;5109482;28;20155;-68
2020/12/09 03:30:09;;;;;;;0.10;0.10;;;3.00;99.90;;;;;;5109221;28;20239;-69
2020/12/09 03:32:35;;;;;;;0.55;0.55;;;3.00;99.90;;;;;;5109351;28;20179;-69
2020/12/09 03:35:01;;;;;;;0.10;0.10;;;2.90;99.90;;;;;;5109243;28;20159;-68
2020/12/09 03:37:26;;;;;;;0.60;0.60;;;2.90;99.90;;;;;;5109449;28;20168;-68
2020/12/09 03:39:52;;;;;;;0.52;0.52;;;3.00;99.90;;;;;;5108901;28;20234;-69
2020/12/09 03:42:18;;;;;;;0.20;0.20;;;2.90;99.90;;;;;;5107742;28;20239;-69
2020/12/09 03:44:44;;;;;;;0.57;0.57;;;2.90;99.90;;;;;;5109083;28;20152;-69
2020/12/09 03:47:10;;;;;;;0.20;0.20;;;2.90;99.90;;;;;;5109277;28;20182;-69
2020/12/09 03:49:36;;;;;;;0.55;0.55;;;2.90;99.90;;;;;;5107627;28;20624;-69
2020/12/09 03:52:02;;;;;;;0.20;0.20;;;2.90;99.90;;;;;;5107743;28;20175;-68
2020/12/09 03:54:28;;;;;;;0.30;0.30;;;2.90;99.90;;;;;;5108891;28;20177;-69
2020/12/09 03:56:53;;;;;;;0.10;0.10;;;2.80;99.90;;;;;;5108867;28;20163;-69
2020/12/09 03:59:19;;;;;;;1.55;1.45;;;2.80;99.90;;;;;;5108847;28;20231;-69
2020/12/09 04:01:45;;;;;;;1.08;1.08;;;2.70;99.90;;;;;;5107498;28;20199;-69
2020/12/09 04:04:11;;;;;;;0.50;0.50;;;2.70;99.90;;;;;;5111362;28;20238;-68
2020/12/09 04:06:37;;;;;;;0.32;0.32;;;2.70;99.90;;;;;;5112777;28;20199;-68
2020/12/09 04:09:04;;;;;;;0.25;0.25;;;2.70;99.90;;;;;;5112662;28;20160;-69
2020/12/09 04:11:31;;;;;;;1.35;1.25;;;2.70;99.90;;;;;;5112668;28;20183;-69
2020/12/09 04:13:57;;;;;;;1.00;0.95;;;2.60;99.90;;;;;;5112509;28;20160;-69
2020/12/09 04:16:23;;;;;;;0.65;0.65;;;2.60;99.90;;;;;;5111257;28;20571;-68
2020/12/09 04:18:50;;;;;;;0.32;0.32;;;2.50;99.90;;;;;;5112140;28;20156;-68
2020/12/09 04:21:16;;;;;;;0.20;0.20;;;2.50;99.90;;;;;;5112572;28;20191;-69
2020/12/09 04:23:41;;;;;;;0.10;0.10;;;2.50;99.90;;;;;;5112428;28;20159;-69
2020/12/09 04:26:07;;;;;;;0.20;0.20;;;2.50;99.90;;;;;;5112281;28;20187;-68
2020/12/09 04:28:33;;;;;;;0.32;0.32;;;2.60;99.90;;;;;;5112111;28;20163;-69
2020/12/09 04:30:59;;;;;;;0.28;0.28;;;2.60;99.90;;;;;;5112453;28;20195;-69
2020/12/09 04:33:30;;;;;;;0.90;0.90;;;2.60;99.90;;;;;;5110960;28;20171;-69
2020/12/09 04:35:57;;;;;;;0.35;0.28;;;2.70;99.90;;;;;;5112337;28;20159;-68
2020/12/09 04:38:24;;;;;;;0.30;0.30;;;2.70;99.90;;;;;;5112136;28;20156;-68
2020/12/09 04:40:51;;;;;;;0.22;0.22;;;2.70;99.90;;;;;;5111783;28;20222;-69
2020/12/09 04:43:17;;;;;;;0.10;0.10;;;2.80;99.90;;;;;;5111960;28;20516;-68
2020/12/09 04:45:43;;;;;;;0.10;0.10;;;2.80;99.90;;;;;;5110356;28;20209;-69
2020/12/09 04:48:14;;;;;;;0.60;0.60;;;2.80;99.90;;;;;;5110573;28;20217;-68
2020/12/09 04:50:46;;;;;;;1.55;1.30;;;2.80;99.90;;;;;;5111666;28;20190;-68
2020/12/09 04:53:32;;;;;;;0.10;0.10;;;2.80;99.90;;;;;;5111523;28;20164;-68
2020/12/09 04:55:59;;;;;;;0.55;0.55;;;2.80;99.90;;;;;;5109719;28;20170;-69
2020/12/09 04:58:41;;;;;;;0.20;0.20;;;2.80;99.90;;;;;;5109048;28;20175;-68
2020/12/09 05:01:10;;;;;;;0.32;0.32;;;2.80;99.90;;;;;;5110658;28;20195;-68
2020/12/09 05:03:47;;;;;;;0.75;0.75;;;2.80;99.90;;;;;;5109619;28;20297;-69
2020/12/09 05:06:20;;;;;;;0.20;0.20;;;2.70;99.90;;;;;;5110796;28;20273;-68
2020/12/09 05:08:57;;;;;;;0.10;0.10;;;2.90;99.90;;;;;;5110914;28;20312;-68
2020/12/09 05:11:31;;;;;;;0.13;0.13;;;2.80;99.90;;;;;;5111010;28;20183;-68
2020/12/09 05:13:59;;;;;;;0.20;0.20;;;2.70;99.90;;;;;;5097784;28;20201;-68
2020/12/09 05:16:26;;;;;;;0.10;0.10;;;2.70;99.90;;;;;;5106832;28;20262;-68
2020/12/09 05:18:56;;;;;;;0.32;0.32;;;2.70;99.90;;;;;;5089865;28;20184;-69
2020/12/09 05:21:25;;;;;;;0.10;0.10;;;2.60;99.90;;;;;;5093716;28;20277;-68
2020/12/09 05:23:56;;;;;;;0.10;0.10;;;2.60;99.90;;;;;;5108801;28;20231;-68
2020/12/09 05:26:28;;;;;;;0.25;0.25;;;2.60;99.90;;;;;;5108760;28;20262;-68
2020/12/09 05:29:19;;;;;;;0.32;0.32;;;2.60;99.90;;;;;;5108869;28;20218;-68
2020/12/09 05:31:47;;;;;;;0.45;0.45;;;2.60;99.90;;;;;;5089176;28;20189;-68
2020/12/09 05:34:30;;;;;;;0.10;0.10;;;2.60;99.90;;;;;;5090328;28;20156;-68
2020/12/09 05:37:05;;;;;;;0.45;0.45;;;2.50;99.90;;;;;;5102781;28;20199;-69
2020/12/09 05:39:32;;;;;;;0.10;0.10;;;2.60;99.90;;;;;;5108842;28;20680;-68
2020/12/09 05:42:20;;;;;;;0.13;0.13;;;2.50;99.90;;;;;;5109045;28;20172;-68
2020/12/09 05:44:47;;;;;;;0.10;0.10;;;2.60;99.90;;;;;;5108226;28;20264;-69
2020/12/09 05:47:13;;;;;;;0.20;0.20;;;2.60;99.90;;;;;;5110336;28;20190;-67
2020/12/09 05:49:41;;;;;;;0.20;0.20;;;2.60;99.90;;;;;;5109229;28;20155;-68
2020/12/09 05:52:10;;;;;;;0.20;0.20;;;2.50;99.90;;;;;;5108616;28;20159;-68
2020/12/09 05:54:39;;;;;;;0.20;0.20;;;2.50;99.90;;;;;;5110042;28;20201;-68
2020/12/09 05:57:08;;;;;;;0.20;0.20;;;2.40;99.90;;;;;;5109057;28;20222;-68
2020/12/09 05:59:39;;;;;;;0.55;0.55;;;2.40;99.90;;;;;;5109793;28;20190;-68
2020/12/09 06:02:09;;;;;;;0.13;0.13;;;2.40;99.90;;;;;;5110074;28;20620;-68
2020/12/09 06:05:01;;;;;;;0.93;0.63;;;2.30;99.90;;;;;;5109266;28;20174;-68
2020/12/09 06:07:31;;;;;;;0.10;0.10;;;2.30;99.90;;;;;;5108304;28;20195;-68
2020/12/09 06:10:17;;;;;;;0.10;0.10;;;2.30;99.90;;;;;;5108656;28;20192;-69
2020/12/09 06:12:56;;;;;;;0.40;0.40;;;2.20;99.90;;;;;;5109451;28;20167;-68
2020/12/09 06:15:26;;;;;;;0.32;0.32;;;2.30;99.90;;;;;;5107197;28;20155;-68
2020/12/09 06:18:08;;;;;;;0.10;0.10;;;2.20;99.90;;;;;;5086759;28;20172;-68
2020/12/09 06:20:35;;;;;;;0.10;0.10;;;2.20;99.90;;;;;;5089203;28;20187;-68
2020/12/09 06:23:03;;;;;;;0.38;0.38;;;2.10;99.90;;;;;;5089065;28;20156;-68
2020/12/09 06:25:29;;;;;;;2.75;1.83;;;2.10;99.90;;;;;;5087399;28;20200;-68
2020/12/09 06:27:56;;;;;;;0.10;0.10;;;2.00;99.90;;;;;;5088500;28;20301;-68
2020/12/09 06:30:31;;;;;;;1.20;1.20;;;2.00;99.90;;;;;;5089073;28;20152;-68
2020/12/09 06:32:57;;;;;;;0.52;0.52;;;2.10;99.90;;;;;;5088998;28;20403;-68
2020/12/09 06:35:23;;;;;;;0.38;0.35;;;2.10;99.90;;;;;;5103069;28;20221;-68
2020/12/09 06:38:07;;;;;;;0.10;0.10;;;2.10;99.90;;;;;;5109536;28;20278;-68
2020/12/09 06:40:37;;;;;;;0.10;0.10;;;2.00;99.90;;;;;;5108808;28;20266;-68
2020/12/09 06:43:11;;;;;;;0.32;0.32;;;1.90;99.90;;;;;;5109080;28;20163;-68
2020/12/09 06:45:47;;;;;;;0.10;0.10;;;1.90;99.90;;;;;;5109494;28;20262;-68
2020/12/09 06:48:18;;;;;;;0.20;0.20;;;1.90;99.90;;;;;;5107417;28;20178;-68
2020/12/09 06:50:45;;;;;;;0.40;0.40;;;1.90;99.90;;;;;;5107989;28;20243;-68
2020/12/09 06:53:15;;;;;;;0.10;0.10;;;1.80;99.90;;;;;;5108679;28;20180;-68
2020/12/09 06:55:42;;;;;;;0.70;0.70;;;1.90;99.90;;;;;;5108040;28;20167;-68
2020/12/09 06:58:28;;;;;;;0.38;0.35;;;1.80;99.90;;;;;;5108972;28;20164;-68
2020/12/09 07:00:58;;;;;;;0.10;0.10;;;1.80;99.90;;;;;;5107524;28;20179;-68
2020/12/09 07:03:26;;;;;;;0.10;0.10;;;1.70;99.90;;;;;;5108929;28;20236;-68
2020/12/09 07:05:53;;;;;;;0.10;0.10;;;1.70;99.90;;;;;;5109082;28;20210;-69
2020/12/09 07:08:19;;;;;;;0.10;0.10;;;1.60;99.90;;;;;;5107417;28;20171;-68
2020/12/09 07:10:45;;;;;;;0.40;0.40;;;1.60;99.90;;;;;;5108993;28;20163;-68
2020/12/09 07:13:13;;;;;;;0.10;0.10;;;1.70;99.90;;;;;;5108927;28;20159;-68
2020/12/09 07:15:47;;;;;;;0.13;0.13;;;1.70;99.90;;;;;;5108535;28;20162;-68
2020/12/09 07:18:13;;;;;;;0.25;0.25;;;1.60;99.90;;;;;;5108685;28;20155;-68
2020/12/09 07:20:41;;;;;;;0.10;0.10;;;1.70;99.90;;;;;;5107104;28;20256;-68
2020/12/09 07:23:08;;;;;;;0.20;0.20;;;1.60;99.90;;;;;;5109022;28;20254;-68
2020/12/09 07:25:35;;;;;;;0.10;0.10;;;1.60;99.90;;;;;;5107090;28;20331;-68
2020/12/09 07:28:02;;;;;;;0.60;0.50;;;1.50;99.90;;;;;;5107711;28;20183;-68
2020/12/09 07:30:29;;;;;;;0.10;0.10;;;1.50;99.90;;;;;;5107227;28;20159;-68
2020/12/09 07:32:55;;;;;;;0.10;0.10;;;1.50;99.90;;;;;;5107932;28;20250;-69
2020/12/09 07:35:22;;;;;;;0.30;0.30;;;1.40;99.90;;;;;;5108812;28;20164;-68
2020/12/09 07:37:53;;;;;;;0.10;0.10;;;1.40;99.90;;;;;;5109330;28;20187;-68
2020/12/09 07:40:32;;;;;;;0.82;0.82;;;1.40;99.90;;;;;;5112228;28;20223;-68
2020/12/09 07:43:12;;;;;;;1.60;1.55;;;1.40;99.90;;;;;;5112787;28;20167;-68
2020/12/09 07:45:41;;;;;;;0.20;0.20;;;1.40;99.90;;;;;;5111369;28;20214;-68
2020/12/09 07:48:12;;;;;;;0.32;0.32;;;1.40;99.90;;;;;;5112969;28;20151;-68
2020/12/09 07:50:39;;;;;;;0.15;0.15;;;1.40;99.90;;;;;;5101185;28;20243;-68
2020/12/09 07:53:11;;;;;;;0.32;0.32;;;1.40;99.90;;;;;;5107966;28;20159;-68
2020/12/09 07:55:38;;;;;;;0.10;0.10;;;1.40;99.90;;;;;;5096468;28;20183;-68
2020/12/09 07:58:06;;;;;;;1.85;1.42;;;1.50;99.90;;;;;;5103049;28;20196;-67
2020/12/09 08:00:41;;;;;;;0.75;0.70;;;1.50;99.90;;;;;;5097407;28;20168;-69
2020/12/09 08:03:19;;;;;;;0.20;0.20;;;1.50;99.90;;;;;;5092795;28;20210;-67
2020/12/09 08:05:46;;;;;;;0.10;0.10;;;1.50;99.90;;;;;;5112625;28;20738;-67
2020/12/09 08:08:13;;;;;;;0.10;0.10;;;1.50;99.90;;;;;;5112417;28;20163;-69
2020/12/09 08:10:43;;;;;;;0.50;0.50;;;1.50;99.90;;;;;;5112303;28;20190;-68
2020/12/09 08:13:12;;;;;;;0.20;0.20;;;1.50;99.90;;;;;;5098209;28;20269;-69
2020/12/09 08:15:43;;;;;;;0.20;0.20;;;1.50;99.90;;;;;;5090628;28;20168;-69
2020/12/09 08:18:21;;;;;;;0.10;0.10;;;1.50;99.90;;;;;;5108584;28;20206;-69
2020/12/09 08:20:48;;;;;;;0.13;0.13;;;1.50;99.90;;;;;;5110106;28;20415;-69
2020/12/09 08:23:14;;;;;;;0.10;0.10;;;1.40;99.90;;;;;;5110408;28;20609;-68
2020/12/09 08:25:49;;;;;;;0.15;0.15;;;1.50;99.90;;;;;;5110233;28;20202;-68
2020/12/09 08:28:19;;;;;;;0.10;0.10;;;1.50;99.90;;;;;;5110659;28;20190;-69
2020/12/09 08:30:45;;;;;;;0.32;0.32;;;1.40;99.90;;;;;;5110451;28;20174;-69
2020/12/09 08:33:11;;;;;;;0.47;0.47;;;1.50;99.90;;;;;;5111427;28;20155;-70
2020/12/09 08:35:59;;;;;;;0.20;0.20;;;1.50;99.90;;;;;;5112166;28;20167;-69
2020/12/09 08:38:29;;;;;;;0.15;0.15;;;1.40;99.90;;;;;;5111475;28;20198;-69
2020/12/09 08:40:58;;;;;;;0.28;0.28;;;1.50;99.90;;;;;;5111817;28;20211;-69
2020/12/09 08:43:30;;;;;;;0.52;0.52;;;1.40;99.90;;;;;;5110507;28;20194;-69
2020/12/09 08:45:57;;;;;;;0.30;0.30;;;1.40;99.90;;;;;;5110630;28;20191;-66
2020/12/09 08:48:23;;;;;;;0.20;0.20;;;1.40;99.90;;;;;;5109535;28;20198;-69
2020/12/09 08:50:51;;;;;;;0.10;0.10;;;1.40;99.90;;;;;;5110242;28;20172;-68
2020/12/09 08:53:19;;;;;;;0.20;0.20;;;1.30;99.90;;;;;;5110362;28;20244;-68
2020/12/09 08:55:46;;;;;;;0.40;0.40;;;1.30;99.90;;;;;;5107045;28;20183;-69
2020/12/09 08:58:13;;;;;;;0.10;0.10;;;1.40;99.90;;;;;;5088568;28;20223;-68
2020/12/09 09:00:41;;;;;;;0.57;0.55;;;1.40;99.90;;;;;;5088939;28;20183;-68
2020/12/09 09:03:16;;;;;;;0.10;0.10;;;1.40;99.90;;;;;;5101240;28;20160;-68
2020/12/09 09:05:43;;;;;;;0.73;0.73;;;1.40;99.90;;;;;;5089242;28;20694;-68
2020/12/09 09:08:09;;;;;;;0.10;0.10;;;1.40;99.90;;;;;;5089276;28;20188;-70
2020/12/09 09:10:36;;;;;;;0.63;0.63;;;1.40;99.90;;;;;;5090610;28;20163;-69
2020/12/09 09:13:02;;;;;;;0.30;0.30;;;1.50;99.90;;;;;;5088915;28;20176;-69
2020/12/09 09:15:28;;;;;;;0.20;0.20;;;1.50;99.90;;;;;;5090033;28;20180;-69
2020/12/09 09:17:54;;;;;;;1.00;1.00;;;1.50;99.90;;;;;;5090388;28;20247;-69
2020/12/09 09:20:20;;;;;;;0.10;0.10;;;1.50;99.90;;;;;;5102735;28;20183;-70
2020/12/09 09:22:46;;;;;;;0.20;0.20;;;1.50;99.90;;;;;;5105739;28;20176;-68
2020/12/09 09:25:12;;;;;;;0.52;0.52;;;1.50;99.90;;;;;;5088350;28;20217;-69
2020/12/09 09:27:38;;;;;;;0.20;0.20;;;1.50;99.90;;;;;;5093252;28;20192;-69
2020/12/09 09:30:06;;;;;;;0.20;0.20;;;1.60;99.90;;;;;;5088132;28;20186;-69
2020/12/09 09:32:32;;;;;;;1.48;1.42;;;1.60;99.90;;;;;;5088355;28;20172;-70
2020/12/09 09:34:58;;;;;;;0.20;0.20;;;1.60;99.90;;;;;;5088602;28;20191;-69
2020/12/09 09:37:24;;;;;;;0.20;0.20;;;1.50;99.90;;;;;;5089504;28;20215;-69
2020/12/09 09:39:51;;;;;;;0.20;0.20;;;1.50;99.90;;;;;;5100109;28;20203;-70
2020/12/09 09:42:18;;;;;;;0.20;0.20;;;1.50;99.90;;;;;;5108364;28;20721;-70
2020/12/09 09:44:45;;;;;;;0.10;0.10;;;1.60;99.90;;;;;;5108621;28;20191;-70
2020/12/09 09:47:12;;;;;;;0.10;0.10;;;1.60;99.90;;;;;;5109991;28;20210;-69
2020/12/09 09:49:38;;;;;;;0.20;0.20;;;1.60;99.90;;;;;;5108446;28;20194;-69
2020/12/09 09:52:04;;;;;;;1.20;1.20;;;1.60;99.90;;;;;;5108491;28;20170;-70
2020/12/09 09:54:30;;;;;;;0.10;0.10;;;1.70;99.90;;;;;;5109262;28;20207;-69
2020/12/09 09:56:56;;;;;;;0.20;0.20;;;1.70;99.90;;;;;;5092131;28;20270;-69
2020/12/09 09:59:22;;;;;;;0.10;0.10;;;1.80;99.90;;;;;;5088631;28;20219;-70
2020/12/09 10:01:47;;;;;;;0.20;0.20;;;1.80;99.90;;;;;;5107493;28;20667;-69
2020/12/09 10:04:14;;;;;;;0.68;0.68;;;1.80;99.90;;;;;;5108003;28;20163;-71
2020/12/09 10:06:40;;;;;;;0.70;0.70;;;1.80;99.90;;;;;;5106624;28;20210;-69
2020/12/09 10:09:07;;;;;;;0.10;0.10;;;1.90;99.90;;;;;;5109238;28;20164;-70
2020/12/09 10:11:38;;;;;;;0.13;0.13;;;1.80;99.90;;;;;;5103452;28;20706;-70
2020/12/09 10:14:05;;;;;;;0.10;0.10;;;1.80;99.90;;;;;;5109110;28;20163;-68
2020/12/09 10:16:31;;;;;;;0.20;0.20;;;1.80;99.90;;;;;;5109575;28;20155;-69
2020/12/09 10:18:59;;;;;;;0.30;0.30;;;1.80;99.90;;;;;;5109202;28;20201;-69
2020/12/09 10:21:31;;;;;;;0.43;0.25;;;1.80;99.90;;;;;;5100370;28;20214;-69
2020/12/09 10:23:58;;;;;;;0.85;0.85;;;1.80;99.90;;;;;;5099943;28;20178;-69
2020/12/09 10:26:36;;;;;;;0.20;0.20;;;1.80;99.90;;;;;;5109303;28;20246;-68
2020/12/09 10:29:07;;;;;;;0.10;0.10;;;1.80;99.90;;;;;;5088490;28;20160;-68
2020/12/09 10:31:40;;;;;;;0.10;0.10;;;1.80;99.90;;;;;;5087343;28;20196;-69
2020/12/09 10:34:08;;;;;;;0.50;0.50;;;1.90;99.90;;;;;;5087085;28;20164;-69
2020/12/09 10:36:38;;;;;;;0.20;0.20;;;1.80;99.90;;;;;;5088843;28;20163;-68
2020/12/09 10:39:06;;;;;;;0.10;0.10;;;1.90;99.90;;;;;;5088948;28;20236;-68
2020/12/09 10:41:39;;;;;;;0.52;0.52;;;1.80;99.90;;;;;;5106875;28;20313;-68
2020/12/09 10:44:04;;;;;;;0.20;0.20;;;1.80;99.90;;;;;;5108927;28;20178;-68
2020/12/09 10:46:36;;;;;;;0.10;0.10;;;1.80;99.90;;;;;;5108672;28;20187;-69
2020/12/09 10:49:07;;;;;;;0.20;0.20;;;1.90;99.90;;;;;;5107402;28;20279;-68
2020/12/09 10:51:33;;;;;;;0.20;0.20;;;1.90;99.90;;;;;;5108902;28;20209;-69
2020/12/09 10:54:00;;;;;;;0.10;0.10;;;1.90;99.90;;;;;;5099621;28;20168;-70
2020/12/09 10:56:31;;;;;;;0.10;0.10;;;1.90;99.90;;;;;;5088517;28;20159;-69
2020/12/09 10:58:58;;;;;;;0.55;0.55;;;1.70;99.90;;;;;;5087905;28;20156;-69
2020/12/09 11:01:25;;;;;;;0.25;0.25;;;1.70;99.90;;;;;;5086528;28;20671;-69
2020/12/09 11:03:52;;;;;;;0.40;0.40;;;1.80;99.90;;;;;;5088331;28;20156;-69
2020/12/09 11:06:18;;;;;;;0.57;0.57;;;1.80;99.90;;;;;;5097895;28;20199;-68
2020/12/09 11:08:44;;;;;;;0.60;0.60;;;1.70;99.90;;;;;;5107046;28;20198;-69
2020/12/09 11:11:10;;;;;;;0.15;0.15;;;1.80;99.90;;;;;;5093925;28;20262;-69
2020/12/09 11:13:36;;;;;;;0.30;0.30;;;1.90;99.90;;;;;;5087285;28;20160;-69
2020/12/09 11:16:02;;;;;;;0.15;0.15;;;1.90;99.90;;;;;;5094058;28;20170;-70
2020/12/09 11:18:28;;;;;;;0.10;0.10;;;2.00;99.90;;;;;;5107953;28;20151;-70
2020/12/09 11:20:54;;;;;;;0.22;0.22;;;2.00;99.90;;;;;;5108378;28;20199;-71
2020/12/09 11:23:20;;;;;;;1.10;0.75;;;2.00;99.90;;;;;;5106823;28;20175;-71
2020/12/09 11:25:46;;;;;;;0.10;0.10;;;2.00;99.90;;;;;;5108250;28;20337;-70
2020/12/09 11:28:13;;;;;;;0.10;0.10;;;2.00;99.90;;;;;;5102274;28;20160;-70
2020/12/09 11:30:39;;;;;;;0.30;0.30;;;2.00;99.90;;;;;;5087975;28;20188;-70
2020/12/09 11:33:05;;;;;;;0.20;0.20;;;1.90;99.90;;;;;;5088226;28;20164;-72
2020/12/09 11:35:30;;;;;;;0.20;0.20;;;1.80;99.90;;;;;;5086906;28;20168;-71
2020/12/09 11:37:56;;;;;;;0.30;0.30;;;1.80;99.90;;;;;;5088322;28;20184;-71
2020/12/09 11:40:25;;;;;;;0.17;0.17;;;1.80;99.90;;;;;;5088211;28;20242;-71
2020/12/09 11:42:52;;;;;;;0.57;0.57;;;1.80;99.90;;;;;;5108812;28;20167;-71
2020/12/09 11:45:18;;;;;;;0.10;0.10;;;1.80;99.90;;;;;;5108871;28;20708;-70
2020/12/09 11:47:44;;;;;;;0.63;0.63;;;1.80;99.90;;;;;;5107052;28;20208;-72
2020/12/09 11:50:10;;;;;;;1.08;1.00;;;1.80;99.90;;;;;;5107298;28;20217;-71
2020/12/09 11:52:36;;;;;;;0.20;0.20;;;1.80;99.90;;;;;;5107305;28;20202;-72
2020/12/09 11:55:03;;;;;;;0.80;0.80;;;1.80;99.90;;;;;;5108245;28;20166;-72
2020/12/09 11:57:30;;;;;;;0.10;0.10;;;1.80;99.90;;;;;;5108383;28;20152;-72
2020/12/09 11:59:56;;;;;;;3.08;1.15;;;1.80;99.90;;;;;;5102257;28;20199;-71
2020/12/09 12:02:22;;;;;;;0.20;0.20;;;1.80;99.90;;;;;;5106899;28;20187;-72
2020/12/09 12:04:51;;;;;;;0.35;0.35;;;1.70;99.90;;;;;;5108657;28;20159;-71
2020/12/09 12:07:17;;;;;;;0.30;0.30;;;1.70;99.90;;;;;;5106702;28;20195;-71
2020/12/09 12:09:43;;;;;;;0.10;0.10;;;1.70;99.90;;;;;;5108273;28;20178;-70
2020/12/09 12:12:09;;;;;;;0.17;0.17;;;1.70;99.90;;;;;;5106759;28;20216;-72
2020/12/09 12:14:35;;;;;;;0.10;0.10;;;1.60;99.90;;;;;;5108427;28;20187;-72
2020/12/09 12:17:01;;;;;;;0.47;0.47;;;1.50;99.90;;;;;;5107726;28;20272;-71
2020/12/09 12:19:27;;;;;;;0.25;0.25;;;1.40;99.90;;;;;;5105722;28;20571;-71
2020/12/09 12:21:53;;;;;;;2.17;1.10;;;1.50;99.90;;;;;;5106894;28;20175;-71
2020/12/09 12:24:18;;;;;;;0.10;0.10;;;1.50;99.90;;;;;;5109353;28;20201;-70
2020/12/09 12:26:45;;;;;;;1.45;1.35;;;1.50;99.90;;;;;;5111965;28;20187;-70
2020/12/09 12:29:11;;;;;;;0.10;0.10;;;1.50;99.90;;;;;;5109930;28;20320;-71
2020/12/09 12:31:37;;;;;;;0.55;0.55;;;1.50;99.90;;;;;;5111841;28;20265;-69
2020/12/09 12:34:03;;;;;;;0.32;0.32;;;1.50;99.90;;;;;;5111733;28;20577;-71
2020/12/09 12:36:29;;;;;;;0.38;0.38;;;1.40;99.90;;;;;;5111115;28;20163;-71
2020/12/09 12:38:54;;;;;;;0.73;0.73;;;1.40;99.90;;;;;;5111491;28;20163;-71
2020/12/09 12:41:20;;;;;;;0.93;0.93;;;1.50;99.90;;;;;;5111222;28;20211;-71
2020/12/09 12:43:46;;;;;;;0.20;0.20;;;1.50;99.90;;;;;;5110430;28;20179;-71
2020/12/09 12:46:12;;;;;;;0.10;0.10;;;1.50;99.90;;;;;;5110925;28;20258;-70
2020/12/09 12:48:38;;;;;;;0.10;0.10;;;1.50;99.90;;;;;;5110601;28;20206;-71
2020/12/09 12:51:04;;;;;;;0.95;0.95;;;1.50;99.90;;;;;;5107238;28;20168;-70
2020/12/09 12:53:30;;;;;;;0.20;0.20;;;1.40;99.90;;;;;;5104994;28;20171;-71
2020/12/09 12:55:56;;;;;;;0.10;0.10;;;1.40;99.90;;;;;;5090475;28;20668;-71
2020/12/09 12:58:22;;;;;;;0.10;0.10;;;1.40;99.90;;;;;;5090442;28;20156;-71
2020/12/09 13:00:48;;;;;;;0.35;0.30;;;1.30;99.90;;;;;;5103845;28;20179;-71
2020/12/09 13:03:14;;;;;;;0.10;0.10;;;1.20;99.90;;;;;;5109358;28;20206;-71